Buoy 41936

sailwx.info

Track history (hours):
 
Tides and Currents Weather Stations Pressure Air Temp Water Temp Dewpoint Dewpoint Depression Visibility Wind Speed Wind Dir Waves Ship Positions

Drifting buoy 41936

Last reported at 2015-Jul-03 13:00 UTC. Time now 2015-Jul-03 17:19 UTC.
Position N 31°12' W 051°03'.

Barometer 1025.9 mb

Date/timePositionNaut miles runAvg speedWind from/ knotsBaromVisibWave heightAir tempDewpointWater temp
2015-Jul-03 13:00N 31°12' W 051°03'1 0.3 1025.9
2015-Jul-03 09:00N 31°11' W 051°05'1 1.2 1025.6
2015-Jul-03 08:00N 31°12' W 051°06'1 0.4 1025.4
2015-Jul-03 06:00N 31°12' W 051°07'2 2.2 1025.4
2015-Jul-03 05:00N 31°12' W 051°10'1 0.2 1025.7
2015-Jul-03 01:00N 31°12' W 051°09'0 0.4 1026.7
2015-Jul-03 00:00N 31°12' W 051°10'2 1.7 1026.3
2015-Jul-02 23:00N 31°12' W 051°11'0 0.0 1025.7
2015-Jul-02 22:00N 31°12' W 051°11'1 0.5 1025.6
2015-Jul-02 20:00N 31°12' W 051°12'0 0.3 1025.7
2015-Jul-02 19:00N 31°13' W 051°13'3 0.4 1025.9
2015-Jul-02 12:00N 31°14' W 051°16'1 0.7 1026.1
2015-Jul-02 10:00N 31°14' W 051°17'2 0.6 1026.0
2015-Jul-02 07:00N 31°15' W 051°19'3 1.5 1024.9
2015-Jul-02 05:00N 31°15' W 051°22'0 0.0 1026.0
2015-Jul-02 01:00N 31°15' W 051°22'1 0.4 1027.0
2015-Jul-01 21:00N 31°16' W 051°24'3 0.4 1025.7
2015-Jul-01 14:00N 31°18' W 051°26'2 0.5 1027.3
2015-Jul-01 10:00N 31°18' W 051°29'1 0.9 1027.2
2015-Jul-01 09:00N 31°19' W 051°29'1 0.7 1027.0
2015-Jul-01 08:00N 31°19' W 051°30'1 1.4 1026.7
2015-Jul-01 07:00N 31°20' W 051°31'2 0.3 1026.7
2015-Jul-01 00:00N 31°21' W 051°33'0 0.0 1027.9
2015-Jun-30 22:00N 31°21' W 051°33'0 0.3 1027.4
2015-Jun-30 21:00N 31°21' W 051°33'1 0.7 1026.9
2015-Jun-30 20:00N 31°21' W 051°33'2 0.6 1027.0
2015-Jun-30 17:00N 31°23' W 051°34'0 0.0 1027.5
2015-Jun-30 16:00N 31°23' W 051°34'5 0.8 1027.7
2015-Jun-30 10:00N 31°26' W 051°38'1 0.6 1028.1
2015-Jun-30 08:00N 31°27' W 051°40'1 0.2 1026.9
2015-Jun-30 01:00N 31°28' W 051°39'4 0.7 1027.3
2015-Jun-29 20:00N 31°30' W 051°42'1 0.5 1026.3
2015-Jun-29 17:00N 31°31' W 051°43'2 0.6 1026.6
2015-Jun-29 13:00N 31°33' W 051°45'2 2.3 1026.5
2015-Jun-29 12:00N 31°35' W 051°46'0 0.0 1026.2
2015-Jun-29 11:00N 31°35' W 051°46'0 0.1 1025.8
2015-Jun-29 10:00N 31°35' W 051°46'4 0.4 1025.4
2015-Jun-28 23:00N 31°39' W 051°49'3 1.0 1023.5
2015-Jun-28 20:00N 31°41' W 051°51'9 0.9 1022.8
2015-Jun-28 10:00N 31°49' W 051°57'4 1.0 1023.1
2015-Jun-28 06:00N 31°51' W 052°01'1 1.0 1022.5
2015-Jun-28 05:00N 31°50' W 052°02'1 0.2 1023.0
2015-Jun-28 01:00N 31°51' W 052°02'2 0.5 1024.1
2015-Jun-27 21:00N 31°53' W 052°03'0 0.2 1024.0
2015-Jun-27 20:00N 31°53' W 052°03'6 0.8 1024.1
2015-Jun-27 12:00N 31°57' W 052°08'0 0.0 1025.4
2015-Jun-27 11:00N 31°57' W 052°08'0 0.4 1025.4
2015-Jun-27 10:00N 31°58' W 052°08'3 0.6 1025.1
2015-Jun-27 06:00N 31°58' W 052°11'1 1.0 1025.2
2015-Jun-27 05:00N 31°58' W 052°10'2 0.3 1025.6
2015-Jun-26 22:00N 31°60' W 052°11'3 0.4 1025.8
2015-Jun-26 16:00N 32°02' W 052°13'2 1.1 1026.2
2015-Jun-26 14:00N 32°03' W 052°15'1 0.6 1026.1
2015-Jun-26 12:00N 32°04' W 052°16'0 0.0 1025.6
2015-Jun-26 11:00N 32°04' W 052°16'1 0.7 1025.4
2015-Jun-26 10:00N 32°04' W 052°16'0 0.0 1025.0
2015-Jun-26 09:00N 32°04' W 052°16'1 1.3 1024.2
2015-Jun-26 08:00N 32°04' W 052°18'0 0.0 1023.6
2015-Jun-26 07:00N 32°04' W 052°18'1 0.8 1023.4
2015-Jun-26 06:00N 32°03' W 052°19'0 0.1 1023.4
2015-Jun-26 04:00N 32°04' W 052°19'1 0.2 1024.1
2015-Jun-26 01:00N 32°04' W 052°19'2 1.8 1024.8
2015-Jun-26 00:00N 32°05' W 052°20'0 0.0 1024.7
2015-Jun-25 23:00N 32°05' W 052°20'0 0.1 1024.1
2015-Jun-25 21:00N 32°05' W 052°20'2 1.1 1023.4
2015-Jun-25 19:00N 32°07' W 052°22'0 0.2 1023.9
2015-Jun-25 18:00N 32°07' W 052°22'1 1.1 1023.9
2015-Jun-25 17:00N 32°07' W 052°23'0 0.0 1024.2
2015-Jun-25 16:00N 32°07' W 052°23'2 1.1 1024.2
2015-Jun-25 14:00N 32°07' W 052°26'1 0.6 1024.1
2015-Jun-25 12:00N 32°07' W 052°27'0 0.1 1023.5
2015-Jun-25 09:00N 32°08' W 052°27'1 0.9 1022.9
2015-Jun-25 08:00N 32°08' W 052°28'0 0.0 1022.5
2015-Jun-25 07:00N 32°08' W 052°28'1 0.5 1022.6
2015-Jun-25 06:00N 32°08' W 052°28'1 0.6 1022.8
2015-Jun-25 04:00N 32°09' W 052°29'0 0.0 1023.3
2015-Jun-25 02:00N 32°09' W 052°29'0 0.2 1023.6
2015-Jun-25 01:00N 32°08' W 052°29'1 0.6 1023.6
2015-Jun-24 23:00N 32°09' W 052°29'2 0.7 1023.1
2015-Jun-24 20:00N 32°11' W 052°30'0 0.2 1022.8
2015-Jun-24 19:00N 32°11' W 052°30'1 0.9 1022.9
2015-Jun-24 18:00N 32°12' W 052°31'2 0.6 1022.9
2015-Jun-24 14:00N 32°13' W 052°33'1 0.7 1023.6
2015-Jun-24 13:00N 32°14' W 052°34'2 2.3 1023.4
2015-Jun-24 12:00N 32°13' W 052°36'0 0.0 1023.3
2015-Jun-24 11:00N 32°13' W 052°36'1 0.6 1023.1
2015-Jun-24 10:00N 32°14' W 052°36'0 0.2 1022.9
2015-Jun-24 08:00N 32°13' W 052°36'2 0.5 1022.2
2015-Jun-24 05:00N 32°15' W 052°36'1 0.3 1022.5
2015-Jun-24 00:00N 32°16' W 052°35'3 0.7 1023.3
2015-Jun-23 19:00N 32°18' W 052°38'3 0.5 1023.4
2015-Jun-23 13:00N 32°19' W 052°41'   1023.3
Track history (hours):
 
Tides and Currents Weather Stations Pressure Air Temp Water Temp Dewpoint Dewpoint Depression Visibility Wind Speed Wind Dir Waves Ship Positions

Drifting buoy 41936

Last reported at 2015-Jul-03 13:00 UTC. Time now 2015-Jul-03 17:19 UTC.
Position N 31°12' W 051°03'.

Barometer 1025.9 mb

Date/timePositionNaut miles runAvg speedWind from/ knotsBaromVisibWave heightAir tempDewpointWater temp
2015-Jul-03 13:00N 31°12' W 051°03'1 0.3 1025.9
2015-Jul-03 09:00N 31°11' W 051°05'1 1.2 1025.6
2015-Jul-03 08:00N 31°12' W 051°06'1 0.4 1025.4
2015-Jul-03 06:00N 31°12' W 051°07'2 2.2 1025.4
2015-Jul-03 05:00N 31°12' W 051°10'1 0.2 1025.7
2015-Jul-03 01:00N 31°12' W 051°09'0 0.4 1026.7
2015-Jul-03 00:00N 31°12' W 051°10'2 1.7 1026.3
2015-Jul-02 23:00N 31°12' W 051°11'0 0.0 1025.7
2015-Jul-02 22:00N 31°12' W 051°11'1 0.5 1025.6
2015-Jul-02 20:00N 31°12' W 051°12'0 0.3 1025.7
2015-Jul-02 19:00N 31°13' W 051°13'3 0.4 1025.9
2015-Jul-02 12:00N 31°14' W 051°16'1 0.7 1026.1
2015-Jul-02 10:00N 31°14' W 051°17'2 0.6 1026.0
2015-Jul-02 07:00N 31°15' W 051°19'3 1.5 1024.9
2015-Jul-02 05:00N 31°15' W 051°22'0 0.0 1026.0
2015-Jul-02 01:00N 31°15' W 051°22'1 0.4 1027.0
2015-Jul-01 21:00N 31°16' W 051°24'3 0.4 1025.7
2015-Jul-01 14:00N 31°18' W 051°26'2 0.5 1027.3
2015-Jul-01 10:00N 31°18' W 051°29'1 0.9 1027.2
2015-Jul-01 09:00N 31°19' W 051°29'1 0.7 1027.0
2015-Jul-01 08:00N 31°19' W 051°30'1 1.4 1026.7
2015-Jul-01 07:00N 31°20' W 051°31'2 0.3 1026.7
2015-Jul-01 00:00N 31°21' W 051°33'0 0.0 1027.9
2015-Jun-30 22:00N 31°21' W 051°33'0 0.3 1027.4
2015-Jun-30 21:00N 31°21' W 051°33'1 0.7 1026.9
2015-Jun-30 20:00N 31°21' W 051°33'2 0.6 1027.0
2015-Jun-30 17:00N 31°23' W 051°34'0 0.0 1027.5
2015-Jun-30 16:00N 31°23' W 051°34'5 0.8 1027.7
2015-Jun-30 10:00N 31°26' W 051°38'1 0.6 1028.1
2015-Jun-30 08:00N 31°27' W 051°40'1 0.2 1026.9
2015-Jun-30 01:00N 31°28' W 051°39'4 0.7 1027.3
2015-Jun-29 20:00N 31°30' W 051°42'1 0.5 1026.3
2015-Jun-29 17:00N 31°31' W 051°43'2 0.6 1026.6
2015-Jun-29 13:00N 31°33' W 051°45'2 2.3 1026.5
2015-Jun-29 12:00N 31°35' W 051°46'0 0.0 1026.2
2015-Jun-29 11:00N 31°35' W 051°46'0 0.1 1025.8
2015-Jun-29 10:00N 31°35' W 051°46'4 0.4 1025.4
2015-Jun-28 23:00N 31°39' W 051°49'3 1.0 1023.5
2015-Jun-28 20:00N 31°41' W 051°51'9 0.9 1022.8
2015-Jun-28 10:00N 31°49' W 051°57'4 1.0 1023.1
2015-Jun-28 06:00N 31°51' W 052°01'1 1.0 1022.5
2015-Jun-28 05:00N 31°50' W 052°02'1 0.2 1023.0
2015-Jun-28 01:00N 31°51' W 052°02'2 0.5 1024.1
2015-Jun-27 21:00N 31°53' W 052°03'0 0.2 1024.0
2015-Jun-27 20:00N 31°53' W 052°03'6 0.8 1024.1
2015-Jun-27 12:00N 31°57' W 052°08'0 0.0 1025.4
2015-Jun-27 11:00N 31°57' W 052°08'0 0.4 1025.4
2015-Jun-27 10:00N 31°58' W 052°08'3 0.6 1025.1
2015-Jun-27 06:00N 31°58' W 052°11'1 1.0 1025.2
2015-Jun-27 05:00N 31°58' W 052°10'2 0.3 1025.6
2015-Jun-26 22:00N 31°60' W 052°11'3 0.4 1025.8
2015-Jun-26 16:00N 32°02' W 052°13'2 1.1 1026.2
2015-Jun-26 14:00N 32°03' W 052°15'1 0.6 1026.1
2015-Jun-26 12:00N 32°04' W 052°16'0 0.0 1025.6
2015-Jun-26 11:00N 32°04' W 052°16'1 0.7 1025.4
2015-Jun-26 10:00N 32°04' W 052°16'0 0.0 1025.0
2015-Jun-26 09:00N 32°04' W 052°16'1 1.3 1024.2
2015-Jun-26 08:00N 32°04' W 052°18'0 0.0 1023.6
2015-Jun-26 07:00N 32°04' W 052°18'1 0.8 1023.4
2015-Jun-26 06:00N 32°03' W 052°19'0 0.1 1023.4
2015-Jun-26 04:00N 32°04' W 052°19'1 0.2 1024.1
2015-Jun-26 01:00N 32°04' W 052°19'2 1.8 1024.8
2015-Jun-26 00:00N 32°05' W 052°20'0 0.0 1024.7
2015-Jun-25 23:00N 32°05' W 052°20'0 0.1 1024.1
2015-Jun-25 21:00N 32°05' W 052°20'2 1.1 1023.4
2015-Jun-25 19:00N 32°07' W 052°22'0 0.2 1023.9
2015-Jun-25 18:00N 32°07' W 052°22'1 1.1 1023.9
2015-Jun-25 17:00N 32°07' W 052°23'0 0.0 1024.2
2015-Jun-25 16:00N 32°07' W 052°23'2 1.1 1024.2
2015-Jun-25 14:00N 32°07' W 052°26'1 0.6 1024.1
2015-Jun-25 12:00N 32°07' W 052°27'0 0.1 1023.5
2015-Jun-25 09:00N 32°08' W 052°27'1 0.9 1022.9
2015-Jun-25 08:00N 32°08' W 052°28'0 0.0 1022.5
2015-Jun-25 07:00N 32°08' W 052°28'1 0.5 1022.6
2015-Jun-25 06:00N 32°08' W 052°28'1 0.6 1022.8
2015-Jun-25 04:00N 32°09' W 052°29'0 0.0 1023.3
2015-Jun-25 02:00N 32°09' W 052°29'0 0.2 1023.6
2015-Jun-25 01:00N 32°08' W 052°29'1 0.6 1023.6
2015-Jun-24 23:00N 32°09' W 052°29'2 0.7 1023.1
2015-Jun-24 20:00N 32°11' W 052°30'0 0.2 1022.8
2015-Jun-24 19:00N 32°11' W 052°30'1 0.9 1022.9
2015-Jun-24 18:00N 32°12' W 052°31'2 0.6 1022.9
2015-Jun-24 14:00N 32°13' W 052°33'1 0.7 1023.6
2015-Jun-24 13:00N 32°14' W 052°34'2 2.3 1023.4
2015-Jun-24 12:00N 32°13' W 052°36'0 0.0 1023.3
2015-Jun-24 11:00N 32°13' W 052°36'1 0.6 1023.1
2015-Jun-24 10:00N 32°14' W 052°36'0 0.2 1022.9
2015-Jun-24 08:00N 32°13' W 052°36'2 0.5 1022.2
2015-Jun-24 05:00N 32°15' W 052°36'1 0.3 1022.5
2015-Jun-24 00:00N 32°16' W 052°35'3 0.7 1023.3
2015-Jun-23 19:00N 32°18' W 052°38'3 0.5 1023.4
2015-Jun-23 13:00N 32°19' W 052°41'   1023.3

Dump ship's entire track history